sensor_id;sensor_type;location;lat;lon;timestamp;temperature;humidity
4985;DHT22;2509;49.902;8.600;2023-08-17T00:02:27;18.80;99.90
4985;DHT22;2509;49.902;8.600;2023-08-17T00:05:29;18.90;99.90
4985;DHT22;2509;49.902;8.600;2023-08-17T00:08:32;18.90;99.90
4985;DHT22;2509;49.902;8.600;2023-08-17T00:11:34;18.90;99.90
4985;DHT22;2509;49.902;8.600;2023-08-17T00:14:37;18.90;99.90
4985;DHT22;2509;49.902;8.600;2023-08-17T00:17:39;18.90;99.90
4985;DHT22;2509;49.902;8.600;2023-08-17T00:20:41;18.80;99.90
4985;DHT22;2509;49.902;8.600;2023-08-17T00:23:42;18.80;99.90
4985;DHT22;2509;49.902;8.600;2023-08-17T00:26:44;18.80;99.90
4985;DHT22;2509;49.902;8.600;2023-08-17T00:29:47;18.80;99.90
4985;DHT22;2509;49.902;8.600;2023-08-17T00:32:49;18.80;99.90
4985;DHT22;2509;49.902;8.600;2023-08-17T00:35:51;18.80;99.90
4985;DHT22;2509;49.902;8.600;2023-08-17T00:38:52;18.80;99.90
4985;DHT22;2509;49.902;8.600;2023-08-17T00:41:54;18.70;99.90
4985;DHT22;2509;49.902;8.600;2023-08-17T00:44:57;18.70;99.90
4985;DHT22;2509;49.902;8.600;2023-08-17T00:47:59;18.70;99.90
4985;DHT22;2509;49.902;8.600;2023-08-17T00:51:02;18.70;99.90
4985;DHT22;2509;49.902;8.600;2023-08-17T00:54:04;18.70;99.90
4985;DHT22;2509;49.902;8.600;2023-08-17T00:57:06;18.70;99.90
4985;DHT22;2509;49.902;8.600;2023-08-17T01:00:12;18.60;99.90
4985;DHT22;2509;49.902;8.600;2023-08-17T01:03:15;18.60;99.90
4985;DHT22;2509;49.902;8.600;2023-08-17T01:06:18;18.60;99.90
4985;DHT22;2509;49.902;8.600;2023-08-17T01:09:20;18.60;99.90
4985;DHT22;2509;49.902;8.600;2023-08-17T01:12:29;18.60;99.90
4985;DHT22;2509;49.902;8.600;2023-08-17T01:15:36;18.50;99.90
4985;DHT22;2509;49.902;8.600;2023-08-17T01:18:39;18.50;99.90
4985;DHT22;2509;49.902;8.600;2023-08-17T01:21:44;18.60;99.90
4985;DHT22;2509;49.902;8.600;2023-08-17T01:24:49;18.50;99.90
4985;DHT22;2509;49.902;8.600;2023-08-17T01:27:50;18.40;99.90
4985;DHT22;2509;49.902;8.600;2023-08-17T01:30:57;18.40;99.90
4985;DHT22;2509;49.902;8.600;2023-08-17T01:34:03;18.40;99.90
4985;DHT22;2509;49.902;8.600;2023-08-17T01:37:07;18.50;99.90
4985;DHT22;2509;49.902;8.600;2023-08-17T01:40:14;18.40;99.90
4985;DHT22;2509;49.902;8.600;2023-08-17T01:43:16;18.40;99.90
4985;DHT22;2509;49.902;8.600;2023-08-17T01:46:18;18.40;99.90
4985;DHT22;2509;49.902;8.600;2023-08-17T01:49:20;18.50;99.90
4985;DHT22;2509;49.902;8.600;2023-08-17T01:52:22;18.40;99.90
4985;DHT22;2509;49.902;8.600;2023-08-17T01:55:26;18.40;99.90
4985;DHT22;2509;49.902;8.600;2023-08-17T01:58:28;18.40;99.90
4985;DHT22;2509;49.902;8.600;2023-08-17T02:01:30;18.40;99.90
4985;DHT22;2509;49.902;8.600;2023-08-17T02:04:31;18.40;99.90
4985;DHT22;2509;49.902;8.600;2023-08-17T02:07:33;18.40;99.90
4985;DHT22;2509;49.902;8.600;2023-08-17T02:10:36;18.40;99.90
4985;DHT22;2509;49.902;8.600;2023-08-17T02:13:38;18.30;99.90
4985;DHT22;2509;49.902;8.600;2023-08-17T02:16:40;18.40;99.90
4985;DHT22;2509;49.902;8.600;2023-08-17T02:19:41;18.40;99.90
4985;DHT22;2509;49.902;8.600;2023-08-17T02:22:43;18.40;99.90
4985;DHT22;2509;49.902;8.600;2023-08-17T02:25:46;18.30;99.90
4985;DHT22;2509;49.902;8.600;2023-08-17T02:28:48;18.30;99.90
4985;DHT22;2509;49.902;8.600;2023-08-17T02:31:50;18.30;99.90
4985;DHT22;2509;49.902;8.600;2023-08-17T02:34:55;18.30;99.90
4985;DHT22;2509;49.902;8.600;2023-08-17T02:37:56;18.30;99.90
4985;DHT22;2509;49.902;8.600;2023-08-17T02:40:59;18.30;99.90
4985;DHT22;2509;49.902;8.600;2023-08-17T02:44:02;18.30;99.90
4985;DHT22;2509;49.902;8.600;2023-08-17T02:47:04;18.30;99.90
4985;DHT22;2509;49.902;8.600;2023-08-17T02:50:06;18.30;99.90
4985;DHT22;2509;49.902;8.600;2023-08-17T02:53:08;18.30;99.90
4985;DHT22;2509;49.902;8.600;2023-08-17T02:56:11;18.40;99.90
4985;DHT22;2509;49.902;8.600;2023-08-17T02:59:13;18.40;99.90
4985;DHT22;2509;49.902;8.600;2023-08-17T03:02:15;18.40;99.90
4985;DHT22;2509;49.902;8.600;2023-08-17T03:05:16;18.40;99.90
4985;DHT22;2509;49.902;8.600;2023-08-17T03:08:18;18.40;99.90
4985;DHT22;2509;49.902;8.600;2023-08-17T03:11:21;18.50;99.90
4985;DHT22;2509;49.902;8.600;2023-08-17T03:14:23;18.50;99.90
4985;DHT22;2509;49.902;8.600;2023-08-17T03:17:25;18.50;99.90
4985;DHT22;2509;49.902;8.600;2023-08-17T03:20:26;18.60;99.90
4985;DHT22;2509;49.902;8.600;2023-08-17T03:23:28;18.60;99.90
4985;DHT22;2509;49.902;8.600;2023-08-17T03:26:31;18.60;99.90
4985;DHT22;2509;49.902;8.600;2023-08-17T03:29:33;18.60;99.90
4985;DHT22;2509;49.902;8.600;2023-08-17T03:32:35;18.50;99.90
4985;DHT22;2509;49.902;8.600;2023-08-17T03:35:37;18.50;99.90
4985;DHT22;2509;49.902;8.600;2023-08-17T03:38:38;18.50;99.90
4985;DHT22;2509;49.902;8.600;2023-08-17T03:41:42;18.50;99.90
4985;DHT22;2509;49.902;8.600;2023-08-17T03:44:43;18.50;99.90
4985;DHT22;2509;49.902;8.600;2023-08-17T03:47:45;18.40;99.90
4985;DHT22;2509;49.902;8.600;2023-08-17T03:50:47;18.40;99.90
4985;DHT22;2509;49.902;8.600;2023-08-17T03:53:48;18.40;99.90
4985;DHT22;2509;49.902;8.600;2023-08-17T03:56:51;18.40;99.90
4985;DHT22;2509;49.902;8.600;2023-08-17T03:59:53;18.40;99.90
4985;DHT22;2509;49.902;8.600;2023-08-17T04:02:55;18.40;99.90
4985;DHT22;2509;49.902;8.600;2023-08-17T04:05:57;18.50;99.90
4985;DHT22;2509;49.902;8.600;2023-08-17T04:08:58;18.50;99.90
4985;DHT22;2509;49.902;8.600;2023-08-17T04:12:02;18.50;99.90
4985;DHT22;2509;49.902;8.600;2023-08-17T04:15:06;18.50;99.90
4985;DHT22;2509;49.902;8.600;2023-08-17T04:18:08;18.60;99.90
4985;DHT22;2509;49.902;8.600;2023-08-17T04:21:10;18.60;99.90
4985;DHT22;2509;49.902;8.600;2023-08-17T04:24:12;18.50;99.90
4985;DHT22;2509;49.902;8.600;2023-08-17T04:27:15;18.50;99.90
4985;DHT22;2509;49.902;8.600;2023-08-17T04:30:17;18.50;99.90
4985;DHT22;2509;49.902;8.600;2023-08-17T04:33:19;18.50;99.90
4985;DHT22;2509;49.902;8.600;2023-08-17T04:36:21;18.40;99.90
4985;DHT22;2509;49.902;8.600;2023-08-17T04:39:22;18.40;99.90
4985;DHT22;2509;49.902;8.600;2023-08-17T04:42:25;18.40;99.90
4985;DHT22;2509;49.902;8.600;2023-08-17T04:45:27;18.50;99.90
4985;DHT22;2509;49.902;8.600;2023-08-17T04:48:29;18.50;99.90
4985;DHT22;2509;49.902;8.600;2023-08-17T04:51:31;18.50;99.90
4985;DHT22;2509;49.902;8.600;2023-08-17T04:54:33;18.50;99.90
4985;DHT22;2509;49.902;8.600;2023-08-17T04:57:37;18.40;99.90
4985;DHT22;2509;49.902;8.600;2023-08-17T05:00:39;18.40;99.90
4985;DHT22;2509;49.902;8.600;2023-08-17T05:03:40;18.40;99.90
4985;DHT22;2509;49.902;8.600;2023-08-17T05:06:42;18.50;99.90
4985;DHT22;2509;49.902;8.600;2023-08-17T05:09:44;18.40;99.90
4985;DHT22;2509;49.902;8.600;2023-08-17T05:12:47;18.40;99.90
4985;DHT22;2509;49.902;8.600;2023-08-17T05:15:49;18.40;99.90
4985;DHT22;2509;49.902;8.600;2023-08-17T05:18:51;18.40;99.90
4985;DHT22;2509;49.902;8.600;2023-08-17T05:21:52;18.50;99.90
4985;DHT22;2509;49.902;8.600;2023-08-17T05:24:54;18.40;99.90
4985;DHT22;2509;49.902;8.600;2023-08-17T05:27:57;18.40;99.90
4985;DHT22;2509;49.902;8.600;2023-08-17T05:31:04;18.30;99.90
4985;DHT22;2509;49.902;8.600;2023-08-17T05:34:06;18.40;99.90
4985;DHT22;2509;49.902;8.600;2023-08-17T05:37:08;18.40;99.90
4985;DHT22;2509;49.902;8.600;2023-08-17T05:40:10;18.40;99.90
4985;DHT22;2509;49.902;8.600;2023-08-17T05:43:13;18.50;99.90
4985;DHT22;2509;49.902;8.600;2023-08-17T05:46:15;18.60;99.90
4985;DHT22;2509;49.902;8.600;2023-08-17T05:49:17;18.70;99.90
4985;DHT22;2509;49.902;8.600;2023-08-17T05:52:18;18.80;99.90
4985;DHT22;2509;49.902;8.600;2023-08-17T05:55:20;18.80;99.90
4985;DHT22;2509;49.902;8.600;2023-08-17T05:58:23;18.80;99.90
4985;DHT22;2509;49.902;8.600;2023-08-17T06:01:25;18.80;99.90
4985;DHT22;2509;49.902;8.600;2023-08-17T06:04:27;18.80;99.90
4985;DHT22;2509;49.902;8.600;2023-08-17T06:07:29;18.90;99.90
4985;DHT22;2509;49.902;8.600;2023-08-17T06:10:30;18.90;99.90
4985;DHT22;2509;49.902;8.600;2023-08-17T06:13:33;19.00;99.90
4985;DHT22;2509;49.902;8.600;2023-08-17T06:16:36;19.00;99.90
4985;DHT22;2509;49.902;8.600;2023-08-17T06:19:37;19.00;99.90
4985;DHT22;2509;49.902;8.600;2023-08-17T06:22:40;19.10;99.90
4985;DHT22;2509;49.902;8.600;2023-08-17T06:25:42;19.20;99.90
4985;DHT22;2509;49.902;8.600;2023-08-17T06:28:45;19.20;99.90
4985;DHT22;2509;49.902;8.600;2023-08-17T06:31:46;19.30;99.90
4985;DHT22;2509;49.902;8.600;2023-08-17T06:34:48;19.40;99.90
4985;DHT22;2509;49.902;8.600;2023-08-17T06:37:50;19.40;99.90
4985;DHT22;2509;49.902;8.600;2023-08-17T06:40:56;19.50;99.90
4985;DHT22;2509;49.902;8.600;2023-08-17T06:43:59;19.50;99.90
4985;DHT22;2509;49.902;8.600;2023-08-17T06:47:01;19.60;99.90
4985;DHT22;2509;49.902;8.600;2023-08-17T06:50:03;19.60;99.90
4985;DHT22;2509;49.902;8.600;2023-08-17T06:53:05;19.70;99.90
4985;DHT22;2509;49.902;8.600;2023-08-17T06:56:06;19.70;99.90
4985;DHT22;2509;49.902;8.600;2023-08-17T06:59:09;19.70;99.90
4985;DHT22;2509;49.902;8.600;2023-08-17T07:02:11;19.80;99.90
4985;DHT22;2509;49.902;8.600;2023-08-17T07:05:13;19.80;99.90
4985;DHT22;2509;49.902;8.600;2023-08-17T07:08:15;19.80;99.90
4985;DHT22;2509;49.902;8.600;2023-08-17T07:11:17;19.90;99.90
4985;DHT22;2509;49.902;8.600;2023-08-17T07:14:20;19.90;99.90
4985;DHT22;2509;49.902;8.600;2023-08-17T07:17:22;19.90;99.90
4985;DHT22;2509;49.902;8.600;2023-08-17T07:20:23;19.80;99.90
4985;DHT22;2509;49.902;8.600;2023-08-17T07:23:25;19.90;99.90
4985;DHT22;2509;49.902;8.600;2023-08-17T07:26:27;19.90;99.90
4985;DHT22;2509;49.902;8.600;2023-08-17T07:29:30;20.00;99.90
4985;DHT22;2509;49.902;8.600;2023-08-17T07:32:32;20.00;99.90
4985;DHT22;2509;49.902;8.600;2023-08-17T07:35:34;20.00;99.90
4985;DHT22;2509;49.902;8.600;2023-08-17T07:38:36;20.10;99.90
4985;DHT22;2509;49.902;8.600;2023-08-17T07:41:38;20.20;99.90
4985;DHT22;2509;49.902;8.600;2023-08-17T07:44:41;20.30;99.90
4985;DHT22;2509;49.902;8.600;2023-08-17T07:47:43;20.40;99.90
4985;DHT22;2509;49.902;8.600;2023-08-17T07:50:48;20.50;99.90
4985;DHT22;2509;49.902;8.600;2023-08-17T07:53:50;20.50;99.90
4985;DHT22;2509;49.902;8.600;2023-08-17T07:56:52;20.50;99.90
4985;DHT22;2509;49.902;8.600;2023-08-17T07:59:55;20.60;99.90
4985;DHT22;2509;49.902;8.600;2023-08-17T08:02:57;20.60;99.90
4985;DHT22;2509;49.902;8.600;2023-08-17T08:05:58;20.60;99.90
4985;DHT22;2509;49.902;8.600;2023-08-17T08:09:00;20.70;99.90
4985;DHT22;2509;49.902;8.600;2023-08-17T08:12:03;20.70;99.90
4985;DHT22;2509;49.902;8.600;2023-08-17T08:15:07;20.60;99.90
4985;DHT22;2509;49.902;8.600;2023-08-17T08:18:09;20.70;99.90
4985;DHT22;2509;49.902;8.600;2023-08-17T08:21:11;20.70;99.90
4985;DHT22;2509;49.902;8.600;2023-08-17T08:24:13;20.70;99.90
4985;DHT22;2509;49.902;8.600;2023-08-17T08:27:14;20.90;99.90
4985;DHT22;2509;49.902;8.600;2023-08-17T08:30:17;20.90;99.90
4985;DHT22;2509;49.902;8.600;2023-08-17T08:33:19;20.90;99.90
4985;DHT22;2509;49.902;8.600;2023-08-17T08:36:21;21.00;99.90
4985;DHT22;2509;49.902;8.600;2023-08-17T08:39:25;20.90;99.90
4985;DHT22;2509;49.902;8.600;2023-08-17T08:42:27;20.90;99.90
4985;DHT22;2509;49.902;8.600;2023-08-17T08:45:30;21.00;99.90
4985;DHT22;2509;49.902;8.600;2023-08-17T08:48:32;21.10;99.90
4985;DHT22;2509;49.902;8.600;2023-08-17T08:51:38;21.20;99.90
4985;DHT22;2509;49.902;8.600;2023-08-17T08:54:43;21.30;99.90
4985;DHT22;2509;49.902;8.600;2023-08-17T08:57:46;21.30;99.90
4985;DHT22;2509;49.902;8.600;2023-08-17T09:00:51;21.40;99.90
4985;DHT22;2509;49.902;8.600;2023-08-17T09:03:54;21.50;99.90
4985;DHT22;2509;49.902;8.600;2023-08-17T09:06:56;21.40;99.90
4985;DHT22;2509;49.902;8.600;2023-08-17T09:09:58;21.30;99.90
4985;DHT22;2509;49.902;8.600;2023-08-17T09:13:00;21.30;99.90
4985;DHT22;2509;49.902;8.600;2023-08-17T09:16:04;21.30;99.90
4985;DHT22;2509;49.902;8.600;2023-08-17T09:19:06;21.50;99.90
4985;DHT22;2509;49.902;8.600;2023-08-17T09:22:07;21.40;99.90
4985;DHT22;2509;49.902;8.600;2023-08-17T09:25:10;21.50;99.90
4985;DHT22;2509;49.902;8.600;2023-08-17T09:28:13;21.50;99.90
4985;DHT22;2509;49.902;8.600;2023-08-17T09:31:20;21.60;99.90
4985;DHT22;2509;49.902;8.600;2023-08-17T09:34:21;21.70;99.90
4985;DHT22;2509;49.902;8.600;2023-08-17T09:37:23;21.60;99.90
4985;DHT22;2509;49.902;8.600;2023-08-17T09:40:26;21.80;99.90
4985;DHT22;2509;49.902;8.600;2023-08-17T09:43:27;21.90;99.90
4985;DHT22;2509;49.902;8.600;2023-08-17T09:46:32;21.90;99.90
4985;DHT22;2509;49.902;8.600;2023-08-17T09:49:34;21.90;99.90
4985;DHT22;2509;49.902;8.600;2023-08-17T09:52:38;22.00;99.90
4985;DHT22;2509;49.902;8.600;2023-08-17T09:55:41;22.20;99.90
4985;DHT22;2509;49.902;8.600;2023-08-17T09:58:43;22.10;99.90
4985;DHT22;2509;49.902;8.600;2023-08-17T10:01:48;22.10;99.90
4985;DHT22;2509;49.902;8.600;2023-08-17T10:04:52;22.20;99.90
4985;DHT22;2509;49.902;8.600;2023-08-17T10:07:57;22.00;99.90
4985;DHT22;2509;49.902;8.600;2023-08-17T10:11:02;22.10;99.90
4985;DHT22;2509;49.902;8.600;2023-08-17T10:14:11;22.10;99.90
4985;DHT22;2509;49.902;8.600;2023-08-17T10:17:22;22.30;99.90
4985;DHT22;2509;49.902;8.600;2023-08-17T10:20:29;22.30;99.90
4985;DHT22;2509;49.902;8.600;2023-08-17T10:23:32;22.40;99.90
4985;DHT22;2509;49.902;8.600;2023-08-17T10:26:34;22.60;99.90
4985;DHT22;2509;49.902;8.600;2023-08-17T10:29:42;22.80;99.90
4985;DHT22;2509;49.902;8.600;2023-08-17T10:33:02;22.90;99.90
4985;DHT22;2509;49.902;8.600;2023-08-17T10:36:06;22.80;99.90
4985;DHT22;2509;49.902;8.600;2023-08-17T10:39:35;22.90;99.90
4985;DHT22;2509;49.902;8.600;2023-08-17T10:42:40;23.00;99.90
4985;DHT22;2509;49.902;8.600;2023-08-17T10:45:42;22.90;99.90
4985;DHT22;2509;49.902;8.600;2023-08-17T10:48:52;23.10;99.90
4985;DHT22;2509;49.902;8.600;2023-08-17T10:52:03;23.30;99.90
4985;DHT22;2509;49.902;8.600;2023-08-17T10:55:09;23.30;99.90
4985;DHT22;2509;49.902;8.600;2023-08-17T10:58:11;23.50;99.90
4985;DHT22;2509;49.902;8.600;2023-08-17T11:01:13;23.70;99.90
4985;DHT22;2509;49.902;8.600;2023-08-17T11:04:23;23.90;99.90
4985;DHT22;2509;49.902;8.600;2023-08-17T11:07:27;24.10;99.90
4985;DHT22;2509;49.902;8.600;2023-08-17T11:10:32;24.00;99.90
4985;DHT22;2509;49.902;8.600;2023-08-17T11:13:36;24.30;99.90
4985;DHT22;2509;49.902;8.600;2023-08-17T11:16:39;24.60;99.90
4985;DHT22;2509;49.902;8.600;2023-08-17T11:19:43;24.60;99.90
4985;DHT22;2509;49.902;8.600;2023-08-17T11:22:46;25.00;99.90
4985;DHT22;2509;49.902;8.600;2023-08-17T11:25:52;25.30;99.90
4985;DHT22;2509;49.902;8.600;2023-08-17T11:28:54;25.30;99.90
4985;DHT22;2509;49.902;8.600;2023-08-17T11:31:56;25.80;99.90
4985;DHT22;2509;49.902;8.600;2023-08-17T11:34:59;26.10;99.90
4985;DHT22;2509;49.902;8.600;2023-08-17T11:38:02;26.50;99.90
4985;DHT22;2509;49.902;8.600;2023-08-17T11:41:06;26.60;99.90
4985;DHT22;2509;49.902;8.600;2023-08-17T11:44:09;26.80;99.90
4985;DHT22;2509;49.902;8.600;2023-08-17T11:47:11;27.30;99.90
4985;DHT22;2509;49.902;8.600;2023-08-17T11:50:15;27.70;99.90
4985;DHT22;2509;49.902;8.600;2023-08-17T11:53:16;28.20;99.90
4985;DHT22;2509;49.902;8.600;2023-08-17T11:56:18;28.90;99.90
4985;DHT22;2509;49.902;8.600;2023-08-17T11:59:20;29.40;99.90
4985;DHT22;2509;49.902;8.600;2023-08-17T12:02:23;29.60;99.90
4985;DHT22;2509;49.902;8.600;2023-08-17T12:05:27;30.20;99.90
4985;DHT22;2509;49.902;8.600;2023-08-17T12:08:29;31.00;99.90
4985;DHT22;2509;49.902;8.600;2023-08-17T12:11:32;32.10;99.90
4985;DHT22;2509;49.902;8.600;2023-08-17T12:14:34;32.50;99.90
4985;DHT22;2509;49.902;8.600;2023-08-17T12:17:44;32.30;99.90
4985;DHT22;2509;49.902;8.600;2023-08-17T12:20:52;31.90;99.90
4985;DHT22;2509;49.902;8.600;2023-08-17T12:23:54;32.20;99.90
4985;DHT22;2509;49.902;8.600;2023-08-17T12:26:57;32.50;99.90
4985;DHT22;2509;49.902;8.600;2023-08-17T12:29:59;33.10;99.90
4985;DHT22;2509;49.902;8.600;2023-08-17T12:33:01;33.20;99.90
4985;DHT22;2509;49.902;8.600;2023-08-17T12:36:04;32.40;99.90
4985;DHT22;2509;49.902;8.600;2023-08-17T12:39:07;31.60;99.90
4985;DHT22;2509;49.902;8.600;2023-08-17T12:42:08;31.20;99.90
4985;DHT22;2509;49.902;8.600;2023-08-17T12:45:10;31.00;99.90
4985;DHT22;2509;49.902;8.600;2023-08-17T12:48:12;31.30;99.90
4985;DHT22;2509;49.902;8.600;2023-08-17T12:51:15;31.80;99.90
4985;DHT22;2509;49.902;8.600;2023-08-17T12:54:17;32.20;99.90
4985;DHT22;2509;49.902;8.600;2023-08-17T12:57:19;32.80;99.90
4985;DHT22;2509;49.902;8.600;2023-08-17T13:00:20;33.40;99.90
4985;DHT22;2509;49.902;8.600;2023-08-17T13:03:22;33.90;99.90
4985;DHT22;2509;49.902;8.600;2023-08-17T13:06:25;34.40;99.90
4985;DHT22;2509;49.902;8.600;2023-08-17T13:09:27;33.50;99.90
4985;DHT22;2509;49.902;8.600;2023-08-17T13:12:29;32.70;99.90
4985;DHT22;2509;49.902;8.600;2023-08-17T13:15:32;31.70;99.90
4985;DHT22;2509;49.902;8.600;2023-08-17T13:18:34;31.40;99.90
4985;DHT22;2509;49.902;8.600;2023-08-17T13:21:37;31.10;99.90
4985;DHT22;2509;49.902;8.600;2023-08-17T13:24:39;30.90;99.90
4985;DHT22;2509;49.902;8.600;2023-08-17T13:27:41;30.70;99.90
4985;DHT22;2509;49.902;8.600;2023-08-17T13:30:42;30.60;99.90
4985;DHT22;2509;49.902;8.600;2023-08-17T13:33:44;30.40;99.90
4985;DHT22;2509;49.902;8.600;2023-08-17T13:36:47;30.20;99.90
4985;DHT22;2509;49.902;8.600;2023-08-17T13:39:49;30.00;99.90
4985;DHT22;2509;49.902;8.600;2023-08-17T13:42:51;29.70;99.90
4985;DHT22;2509;49.902;8.600;2023-08-17T13:45:53;29.50;99.90
4985;DHT22;2509;49.902;8.600;2023-08-17T13:48:54;29.40;99.90
4985;DHT22;2509;49.902;8.600;2023-08-17T13:51:57;29.50;99.90
4985;DHT22;2509;49.902;8.600;2023-08-17T13:54:59;29.90;99.90
4985;DHT22;2509;49.902;8.600;2023-08-17T13:58:01;30.70;99.90
4985;DHT22;2509;49.902;8.600;2023-08-17T14:01:03;31.80;99.90
4985;DHT22;2509;49.902;8.600;2023-08-17T14:04:05;31.40;99.90
4985;DHT22;2509;49.902;8.600;2023-08-17T14:07:13;31.10;99.90
4985;DHT22;2509;49.902;8.600;2023-08-17T14:10:14;31.70;99.90
4985;DHT22;2509;49.902;8.600;2023-08-17T14:13:16;32.90;99.90
4985;DHT22;2509;49.902;8.600;2023-08-17T14:16:24;33.30;99.90
4985;DHT22;2509;49.902;8.600;2023-08-17T14:19:39;33.70;99.90
4985;DHT22;2509;49.902;8.600;2023-08-17T14:22:45;33.50;99.90
4985;DHT22;2509;49.902;8.600;2023-08-17T14:25:52;34.20;99.90
4985;DHT22;2509;49.902;8.600;2023-08-17T14:29:09;34.00;99.90
4985;DHT22;2509;49.902;8.600;2023-08-17T14:32:17;34.00;99.90
4985;DHT22;2509;49.902;8.600;2023-08-17T14:35:36;34.00;99.90
4985;DHT22;2509;49.902;8.600;2023-08-17T14:38:41;34.10;99.90
4985;DHT22;2509;49.902;8.600;2023-08-17T14:42:01;33.80;99.90
4985;DHT22;2509;49.902;8.600;2023-08-17T14:45:10;33.40;99.90
4985;DHT22;2509;49.902;8.600;2023-08-17T14:48:15;33.60;99.90
4985;DHT22;2509;49.902;8.600;2023-08-17T14:51:23;33.80;99.90
4985;DHT22;2509;49.902;8.600;2023-08-17T14:54:28;33.40;99.90
4985;DHT22;2509;49.902;8.600;2023-08-17T14:57:41;33.30;99.90
4985;DHT22;2509;49.902;8.600;2023-08-17T15:00:42;32.80;99.90
4985;DHT22;2509;49.902;8.600;2023-08-17T15:03:44;32.40;99.90
4985;DHT22;2509;49.902;8.600;2023-08-17T15:06:47;31.90;99.90
4985;DHT22;2509;49.902;8.600;2023-08-17T15:09:50;31.60;99.90
4985;DHT22;2509;49.902;8.600;2023-08-17T15:12:53;31.40;99.90
4985;DHT22;2509;49.902;8.600;2023-08-17T15:15:55;31.20;99.90
4985;DHT22;2509;49.902;8.600;2023-08-17T15:18:56;31.80;99.90
4985;DHT22;2509;49.902;8.600;2023-08-17T15:21:58;32.20;99.90
4985;DHT22;2509;49.902;8.600;2023-08-17T15:25:01;32.20;99.90
4985;DHT22;2509;49.902;8.600;2023-08-17T15:28:03;32.30;99.90
4985;DHT22;2509;49.902;8.600;2023-08-17T15:31:05;31.90;99.90
4985;DHT22;2509;49.902;8.600;2023-08-17T15:34:09;31.70;99.90
4985;DHT22;2509;49.902;8.600;2023-08-17T15:37:11;31.30;99.90
4985;DHT22;2509;49.902;8.600;2023-08-17T15:40:14;31.50;99.90
4985;DHT22;2509;49.902;8.600;2023-08-17T15:43:16;31.60;99.90
4985;DHT22;2509;49.902;8.600;2023-08-17T15:46:18;31.40;99.90
4985;DHT22;2509;49.902;8.600;2023-08-17T15:49:19;31.40;99.90
4985;DHT22;2509;49.902;8.600;2023-08-17T15:52:21;31.40;99.90
4985;DHT22;2509;49.902;8.600;2023-08-17T15:55:24;31.20;99.90
4985;DHT22;2509;49.902;8.600;2023-08-17T15:58:26;31.10;99.90
4985;DHT22;2509;49.902;8.600;2023-08-17T16:01:28;31.00;99.90
4985;DHT22;2509;49.902;8.600;2023-08-17T16:04:29;30.70;99.90
4985;DHT22;2509;49.902;8.600;2023-08-17T16:07:31;30.70;99.90
4985;DHT22;2509;49.902;8.600;2023-08-17T16:10:35;30.80;99.90
4985;DHT22;2509;49.902;8.600;2023-08-17T16:13:38;30.80;99.90
4985;DHT22;2509;49.902;8.600;2023-08-17T16:16:40;30.70;99.90
4985;DHT22;2509;49.902;8.600;2023-08-17T16:19:41;30.80;99.90
4985;DHT22;2509;49.902;8.600;2023-08-17T16:22:43;30.90;99.90
4985;DHT22;2509;49.902;8.600;2023-08-17T16:25:46;31.00;99.90
4985;DHT22;2509;49.902;8.600;2023-08-17T16:28:48;30.90;99.90
4985;DHT22;2509;49.902;8.600;2023-08-17T16:32:00;30.70;99.90
4985;DHT22;2509;49.902;8.600;2023-08-17T16:35:03;30.30;99.90
4985;DHT22;2509;49.902;8.600;2023-08-17T16:38:05;30.20;99.90
4985;DHT22;2509;49.902;8.600;2023-08-17T16:41:09;30.40;99.90
4985;DHT22;2509;49.902;8.600;2023-08-17T16:44:10;30.30;99.90
4985;DHT22;2509;49.902;8.600;2023-08-17T16:47:12;29.90;99.90
4985;DHT22;2509;49.902;8.600;2023-08-17T16:50:14;29.80;99.90
4985;DHT22;2509;49.902;8.600;2023-08-17T16:53:16;29.70;99.90
4985;DHT22;2509;49.902;8.600;2023-08-17T16:56:19;29.70;99.90
4985;DHT22;2509;49.902;8.600;2023-08-17T16:59:21;29.50;99.90
4985;DHT22;2509;49.902;8.600;2023-08-17T17:02:23;29.30;99.90
4985;DHT22;2509;49.902;8.600;2023-08-17T17:05:25;29.00;99.90
4985;DHT22;2509;49.902;8.600;2023-08-17T17:08:45;28.90;99.90
4985;DHT22;2509;49.902;8.600;2023-08-17T17:11:48;28.90;99.90
4985;DHT22;2509;49.902;8.600;2023-08-17T17:14:50;28.80;99.90
4985;DHT22;2509;49.902;8.600;2023-08-17T17:17:52;28.70;99.90
4985;DHT22;2509;49.902;8.600;2023-08-17T17:20:54;28.60;99.90
4985;DHT22;2509;49.902;8.600;2023-08-17T17:23:55;28.60;99.90
4985;DHT22;2509;49.902;8.600;2023-08-17T17:26:58;28.40;99.90
4985;DHT22;2509;49.902;8.600;2023-08-17T17:30:00;28.30;99.90
4985;DHT22;2509;49.902;8.600;2023-08-17T17:33:03;28.10;99.90
4985;DHT22;2509;49.902;8.600;2023-08-17T17:36:07;28.00;99.90
4985;DHT22;2509;49.902;8.600;2023-08-17T17:39:09;28.00;99.90
4985;DHT22;2509;49.902;8.600;2023-08-17T17:42:12;27.90;99.90
4985;DHT22;2509;49.902;8.600;2023-08-17T17:45:14;27.80;99.90
4985;DHT22;2509;49.902;8.600;2023-08-17T17:48:15;27.80;99.90
4985;DHT22;2509;49.902;8.600;2023-08-17T17:51:17;27.70;99.90
4985;DHT22;2509;49.902;8.600;2023-08-17T17:54:19;27.60;99.90
4985;DHT22;2509;49.902;8.600;2023-08-17T17:57:22;27.50;99.90
4985;DHT22;2509;49.902;8.600;2023-08-17T18:00:24;27.40;99.90
4985;DHT22;2509;49.902;8.600;2023-08-17T18:03:26;27.30;99.90
4985;DHT22;2509;49.902;8.600;2023-08-17T18:06:28;27.10;99.90
4985;DHT22;2509;49.902;8.600;2023-08-17T18:09:36;27.00;99.90
4985;DHT22;2509;49.902;8.600;2023-08-17T18:12:56;27.00;99.90
4985;DHT22;2509;49.902;8.600;2023-08-17T18:15:58;26.90;99.90
4985;DHT22;2509;49.902;8.600;2023-08-17T18:19:00;26.80;99.90
4985;DHT22;2509;49.902;8.600;2023-08-17T18:22:02;26.70;99.90
4985;DHT22;2509;49.902;8.600;2023-08-17T18:25:05;26.60;99.90
4985;DHT22;2509;49.902;8.600;2023-08-17T18:28:09;26.50;99.90
4985;DHT22;2509;49.902;8.600;2023-08-17T18:31:11;26.40;99.90
4985;DHT22;2509;49.902;8.600;2023-08-17T18:34:13;26.30;99.90
4985;DHT22;2509;49.902;8.600;2023-08-17T18:37:15;26.30;99.90
4985;DHT22;2509;49.902;8.600;2023-08-17T18:40:16;26.20;99.90
4985;DHT22;2509;49.902;8.600;2023-08-17T18:43:21;26.20;99.90
4985;DHT22;2509;49.902;8.600;2023-08-17T18:46:23;26.10;99.90
4985;DHT22;2509;49.902;8.600;2023-08-17T18:49:25;26.00;99.90
4985;DHT22;2509;49.902;8.600;2023-08-17T18:52:26;26.00;99.90
4985;DHT22;2509;49.902;8.600;2023-08-17T18:55:28;25.90;99.90
4985;DHT22;2509;49.902;8.600;2023-08-17T18:58:33;25.80;99.90
4985;DHT22;2509;49.902;8.600;2023-08-17T19:01:35;25.70;99.90
4985;DHT22;2509;49.902;8.600;2023-08-17T19:04:37;25.60;99.90
4985;DHT22;2509;49.902;8.600;2023-08-17T19:07:39;25.60;99.90
4985;DHT22;2509;49.902;8.600;2023-08-17T19:10:41;25.50;99.90
4985;DHT22;2509;49.902;8.600;2023-08-17T19:13:44;25.40;99.90
4985;DHT22;2509;49.902;8.600;2023-08-17T19:16:46;25.30;99.90
4985;DHT22;2509;49.902;8.600;2023-08-17T19:19:47;25.30;99.90
4985;DHT22;2509;49.902;8.600;2023-08-17T19:22:49;25.20;99.90
4985;DHT22;2509;49.902;8.600;2023-08-17T19:25:55;25.20;99.90
4985;DHT22;2509;49.902;8.600;2023-08-17T19:28:58;25.10;99.90
4985;DHT22;2509;49.902;8.600;2023-08-17T19:32:00;25.00;99.90
4985;DHT22;2509;49.902;8.600;2023-08-17T19:35:02;25.00;99.90
4985;DHT22;2509;49.902;8.600;2023-08-17T19:38:27;24.90;99.90
4985;DHT22;2509;49.902;8.600;2023-08-17T19:41:45;24.80;99.90
4985;DHT22;2509;49.902;8.600;2023-08-17T19:44:51;24.70;99.90
4985;DHT22;2509;49.902;8.600;2023-08-17T19:48:04;24.60;99.90
4985;DHT22;2509;49.902;8.600;2023-08-17T19:51:21;24.60;99.90
4985;DHT22;2509;49.902;8.600;2023-08-17T19:54:25;24.60;99.90
4985;DHT22;2509;49.902;8.600;2023-08-17T19:57:44;24.50;99.90